Portada
METAR-TAF:

METAR-TAF

Aeroports :

Locarno, Suïssa

latitud: 46-09-55N, longitud: 8-52-40E, altitud: 198 m

Observació

L'informe es va fer fa 24 minuts, a les 16:20 UTC
Vent 6 kt del Est
Temperatura 5°C
Humitat 100%
Pressió 1007 hPa
Visibilitat: 8000 m
Escasses núvols a una alçada de 12000 ft

METAR: LSZL 281620Z AUTO 08006KT 8000NDV FEW120 05/05 Q1007 RMK

Hora: 17:44 (16:44 UTC)

Pronòstic

L'informe es va fer fa 5 hores i 19 minuts, a les 11:25 UTC
Pronòstic vàlid del 28 a les 12 UTC al 28 a les 21 UTC
Vent 3 kt amb direcció variable
Visibilitat: 6000 m
Escasses núvols a una alçada de 1000 ft
Núvols disperses a una alçada de 2000 ft
Cel ennuvolat a una alçada de 4000 ft
Evolucionant progressivament
l' 28 a les 13 UTC al 28 a les 16 UTC
Visibilitat 10 km o més
sense núvols per sota de 1500 mi sense presència de cumulonimbus.

TAF: LSZL 281125Z 2812/2821 VRB03KT 6000 FEW010 SCT020 BKN040 BECMG 2813/2816 CAVOK

Observacions i pronòstics meteorològics de més de 4000 aeroports (METAR i TAF).

Les estacions disponibles són els punts grocs i vermells al mapa.

Posi el ratolí al punt desitjat per veure el nom de l'estació.

Feu clic per veure les observacions i els pronòstics meteorològics.

Per canviar el mapa: feu clic els botons verds amb una creu de color negre per apropar; al botó verd amb un guió per allunyar la imatge; o en les fletxes verdes per a mapes adjacents.


METAR-TAF: